createdAt,value
2016-06-19T00:00:56.828Z,76.46
2016-06-19T00:01:56.831Z,76.37
2016-06-19T00:02:56.866Z,75.98
2016-06-19T00:03:56.916Z,76.27
2016-06-19T00:04:57.029Z,76.37
2016-06-19T00:05:56.985Z,76.37
2016-06-19T00:06:57.036Z,76.18
2016-06-19T00:07:57.070Z,76.18
2016-06-19T00:08:57.120Z,76.4
2016-06-19T00:09:57.156Z,76.37
2016-06-19T00:10:57.205Z,76.21
2016-06-19T00:11:57.241Z,76.27
2016-06-19T00:12:57.276Z,76.27
2016-06-19T00:13:57.326Z,76.27
2016-06-19T00:14:57.392Z,76.37
2016-06-19T00:15:57.411Z,75.98
2016-06-19T00:16:57.476Z,76.18
2016-06-19T00:17:57.496Z,76.27
2016-06-19T00:18:57.530Z,76.75
2016-06-19T00:19:57.597Z,76.46
2016-06-19T00:20:57.616Z,76.46
2016-06-19T00:21:57.682Z,76.56
2016-06-19T00:22:57.700Z,76.46
2016-06-19T00:23:57.735Z,76.37
2016-06-19T00:24:57.786Z,77.04
2016-06-19T00:25:57.821Z,76.56
2016-06-19T00:26:57.855Z,76.94
2016-06-19T00:27:57.922Z,76.94
2016-06-19T00:28:57.939Z,76.84
2016-06-19T00:29:57.974Z,76.56
2016-06-19T00:30:58.041Z,77.23
2016-06-19T00:31:58.060Z,77.23
2016-06-19T00:32:58.110Z,77.42
2016-06-19T00:33:58.145Z,77.33
2016-06-19T00:34:58.180Z,77.33
2016-06-19T00:35:58.230Z,77.13
2016-06-19T00:36:58.265Z,77.04
2016-06-19T00:37:58.299Z,77.23
2016-06-19T00:38:58.365Z,77.04
2016-06-19T00:39:58.384Z,77.04
2016-06-19T00:40:58.419Z,77.23
2016-06-19T00:41:58.501Z,77.13
2016-06-19T00:42:58.505Z,77.23
2016-06-19T00:43:58.773Z,77.51
2016-06-19T00:44:58.590Z,77.13
2016-06-19T00:45:58.671Z,77.61
2016-06-19T00:46:58.674Z,77.23
2016-06-19T00:47:58.708Z,77.23
2016-06-19T00:48:58.759Z,77.04
2016-06-19T00:49:58.794Z,77.04
2016-06-19T00:50:58.829Z,77.38
2016-06-19T00:51:58.880Z,77.28
2016-06-19T00:52:58.914Z,77.23
2016-06-19T00:53:58.979Z,77.38
2016-06-19T00:54:58.982Z,77.09
2016-06-19T00:55:59.033Z,77.57
2016-06-19T00:56:59.068Z,77.38
2016-06-19T00:57:59.118Z,77.19
2016-06-19T00:58:59.169Z,77.67
2016-06-19T00:59:59.188Z,77.38
2016-06-19T01:00:59.239Z,77.86
2016-06-19T01:01:59.289Z,77.76
2016-06-19T01:02:59.324Z,77.57
2016-06-19T01:03:59.358Z,77.67
2016-06-19T01:04:59.408Z,77.86
2016-06-19T01:05:59.459Z,77.76
2016-06-19T01:06:59.477Z,77.86
2016-06-19T01:07:59.543Z,77.76
2016-06-19T01:08:59.578Z,77.86
2016-06-19T01:09:59.612Z,77.86
2016-06-19T01:10:59.648Z,77.57
2016-06-19T01:11:59.683Z,77.95
2016-06-19T01:12:59.748Z,77.95
2016-06-19T01:13:59.768Z,78.05
2016-06-19T01:14:59.818Z,77.76
2016-06-19T01:15:59.853Z,77.57
2016-06-19T01:17:00.091Z,77.67
2016-06-19T01:17:59.938Z,77.86
2016-06-19T01:19:00.004Z,77.57
2016-06-19T01:20:00.007Z,77.57
2016-06-19T01:21:00.058Z,77.48
2016-06-19T01:22:00.092Z,77.67
2016-06-19T01:23:00.142Z,77.38
2016-06-19T01:24:00.177Z,78.14
2016-06-19T01:25:00.228Z,78.05
2016-06-19T01:26:00.278Z,77.95
2016-06-19T01:27:00.329Z,77.86
2016-06-19T01:28:00.347Z,77.92
2016-06-19T01:29:00.382Z,78.11
2016-06-19T01:30:00.448Z,78.11
2016-06-19T01:31:00.452Z,78.05
2016-06-19T01:32:00.502Z,78.43
2016-06-19T01:33:00.536Z,78.14
2016-06-19T01:34:00.587Z,78.14
2016-06-19T01:35:00.621Z,78.43
2016-06-19T01:36:00.657Z,78.43
2016-06-19T01:37:00.706Z,78.63
2016-06-19T01:38:00.772Z,78.53
2016-06-19T01:39:00.776Z,78.53
2016-06-19T01:40:00.827Z,78.43
2016-06-19T01:41:00.861Z,78.43
2016-06-19T01:42:00.895Z,78.63
2016-06-19T01:43:00.946Z,78.63
2016-06-19T01:44:00.996Z,78.72
2016-06-19T01:45:01.031Z,78.63
2016-06-19T01:46:01.066Z,79
2016-06-19T01:47:01.100Z,79.1
2016-06-19T01:48:01.135Z,79.1
2016-06-19T01:49:01.217Z,79
2016-06-19T01:50:01.236Z,78.91
2016-06-19T01:51:01.270Z,78.72
2016-06-19T01:52:01.352Z,79.1
2016-06-19T01:53:01.341Z,78.81
2016-06-19T01:54:01.390Z,78.63
2016-06-19T01:55:01.429Z,78.97
2016-06-19T01:56:01.468Z,78.91
2016-06-19T01:57:01.522Z,78.58
2016-06-19T01:58:01.576Z,78.81
2016-06-19T01:59:01.613Z,78.58
2016-06-19T02:00:01.696Z,78.68
2016-06-19T02:01:01.701Z,78.68
2016-06-19T02:02:01.736Z,78.68
2016-06-19T02:03:01.820Z,78.78
2016-06-19T02:04:01.824Z,78.58
2016-06-19T02:05:01.875Z,78.87
2016-06-19T02:06:01.895Z,78.49
2016-06-19T02:07:01.946Z,78.78
2016-06-19T02:08:01.981Z,78.78
2016-06-19T02:09:02.016Z,78.87
2016-06-19T02:10:02.051Z,78.49
2016-06-19T02:11:02.101Z,78.87
2016-06-19T02:12:02.136Z,78.87
2016-06-19T02:13:02.186Z,79.06
2016-06-19T02:14:02.236Z,78.87
2016-06-19T02:15:02.272Z,79.16
2016-06-19T02:16:02.289Z,78.78
2016-06-19T02:17:02.356Z,78.97
2016-06-19T02:18:02.422Z,79.16
2016-06-19T02:19:02.411Z,79.35
2016-06-19T02:20:02.460Z,79.06
2016-06-19T02:21:02.495Z,79.16
2016-06-19T02:22:02.546Z,79.54
2016-06-19T02:23:02.580Z,79.35
2016-06-19T02:24:02.630Z,79.44
2016-06-19T02:25:02.665Z,79.44
2016-06-19T02:26:02.732Z,79.25
2016-06-19T02:27:02.750Z,79.44
2016-06-19T02:28:03.441Z,79.25
2016-06-19T02:29:02.867Z,79.35
2016-06-19T02:30:02.885Z,79.44
2016-06-19T02:31:02.905Z,79.16
2016-06-19T02:32:02.939Z,79.35
2016-06-19T02:33:03.021Z,79.06
2016-06-19T02:34:03.024Z,79.35
2016-06-19T02:35:03.075Z,79.54
2016-06-19T02:36:03.125Z,79.25
2016-06-19T02:37:03.190Z,79.73
2016-06-19T02:38:03.194Z,79.16
2016-06-19T02:39:03.244Z,79.25
2016-06-19T02:40:03.279Z,79.54
2016-06-19T02:41:03.314Z,79.54
2016-06-19T02:42:03.349Z,79.54
2016-06-19T02:43:03.383Z,79.35
2016-06-19T02:44:03.434Z,79.16
2016-06-19T02:45:03.468Z,79.25
2016-06-19T02:46:03.503Z,79.25
2016-06-19T02:47:03.554Z,79.35
2016-06-19T02:48:03.604Z,79.54
2016-06-19T02:49:03.653Z,79.25
2016-06-19T02:50:03.673Z,79.35
2016-06-19T02:51:03.708Z,79.06
2016-06-19T02:52:03.790Z,79.35
2016-06-19T02:53:03.792Z,79.06
2016-06-19T02:54:03.828Z,79.83
2016-06-19T02:55:03.878Z,79.93
2016-06-19T02:56:04.569Z,79.73
2016-06-19T02:57:03.947Z,79.64
2016-06-19T02:58:03.998Z,79.83
2016-06-19T02:59:04.033Z,79.64
2016-06-19T03:00:04.114Z,79.35
2016-06-19T03:01:04.117Z,80.02
2016-06-19T03:02:04.168Z,79.73
2016-06-19T03:03:04.187Z,79.83
2016-06-19T03:04:04.269Z,79.83
2016-06-19T03:05:04.272Z,79.93
2016-06-19T03:06:04.307Z,79.83
2016-06-19T03:07:04.419Z,79.83
2016-06-19T03:08:04.423Z,79.96
2016-06-19T03:09:04.442Z,80.16
2016-06-19T03:10:04.492Z,79.77
2016-06-19T03:11:04.543Z,80.21
2016-06-19T03:12:04.561Z,80.11
2016-06-19T03:13:04.597Z,79.93
2016-06-19T03:14:04.648Z,79.73
2016-06-19T03:15:04.713Z,79.96
2016-06-19T03:16:04.747Z,79.96
2016-06-19T03:17:04.767Z,79.96
2016-06-19T03:18:04.802Z,79.96
2016-06-19T03:19:04.851Z,79.96
2016-06-19T03:20:04.902Z,79.96
2016-06-19T03:21:04.922Z,80.06
2016-06-19T03:22:04.971Z,79.96
2016-06-19T03:23:04.990Z,79.96
2016-06-19T03:24:05.041Z,79.87
2016-06-19T03:25:05.092Z,79.77
2016-06-19T03:26:05.126Z,79.49
2016-06-19T03:27:05.192Z,80.44
2016-06-19T03:28:05.211Z,79.58
2016-06-19T03:29:05.245Z,79.49
2016-06-19T03:30:05.296Z,79.49
2016-06-19T03:31:05.362Z,80.06
2016-06-19T03:32:05.365Z,79.77
2016-06-19T03:33:05.400Z,79.96
2016-06-19T03:34:05.451Z,79.49
2016-06-19T03:35:05.501Z,79.87
2016-06-19T03:36:05.535Z,79.49
2016-06-19T03:37:05.570Z,80.06
2016-06-19T03:38:05.605Z,79.87
2016-06-19T03:39:05.655Z,79.77
2016-06-19T03:40:05.705Z,79.58
2016-06-19T03:41:05.741Z,79.49
2016-06-19T03:42:05.775Z,79.49
2016-06-19T03:43:05.857Z,79.29
2016-06-19T03:44:05.860Z,79.29
2016-06-19T03:45:05.910Z,79.29
2016-06-19T03:46:05.929Z,79.43
2016-06-19T03:47:05.996Z,79.49
2016-06-19T03:48:06.029Z,79.87
2016-06-19T03:49:06.065Z,79.33
2016-06-19T03:50:06.100Z,79.52
2016-06-19T03:51:06.165Z,79.43
2016-06-19T03:52:06.184Z,79.62
2016-06-19T03:53:06.220Z,79.05
2016-06-19T03:54:06.254Z,79.43
2016-06-19T03:55:06.304Z,79.43
2016-06-19T03:56:06.339Z,79.24
2016-06-19T03:57:06.389Z,79.14
2016-06-19T03:58:06.425Z,79.33
2016-06-19T03:59:06.506Z,79.62
2016-06-19T04:00:06.510Z,79.43
2016-06-19T04:01:06.544Z,79.24
2016-06-19T04:02:06.594Z,79.62
2016-06-19T04:03:06.645Z,79.52
2016-06-19T04:04:06.663Z,78.57
2016-06-19T04:05:06.714Z,79.81
2016-06-19T04:06:06.764Z,79.05
2016-06-19T04:07:06.784Z,78.47
2016-06-19T04:08:06.834Z,79.24
2016-06-19T04:09:06.869Z,79.33
2016-06-19T04:10:06.919Z,79.43
2016-06-19T04:11:06.954Z,79.52
2016-06-19T04:12:07.006Z,79.24
2016-06-19T04:13:07.043Z,79.33
2016-06-19T04:14:07.078Z,79.33
2016-06-19T04:15:07.802Z,78.95
2016-06-19T04:16:07.166Z,78.86
2016-06-19T04:17:07.217Z,79.24
2016-06-19T04:18:07.254Z,79.14
2016-06-19T04:19:07.288Z,79.14
2016-06-19T04:20:07.340Z,78.66
2016-06-19T04:21:07.375Z,78.76
2016-06-19T04:22:07.409Z,79.05
2016-06-19T04:23:07.506Z,78.61
2016-06-19T04:24:07.494Z,78.61
2016-06-19T04:25:07.545Z,78.99
2016-06-19T04:26:07.579Z,78.51
2016-06-19T04:27:07.645Z,78.8
2016-06-19T04:28:07.665Z,78.8
2016-06-19T04:29:07.699Z,78.8
2016-06-19T04:30:07.750Z,78.89
2016-06-19T04:31:07.831Z,78.8
2016-06-19T04:32:07.818Z,78.99
2016-06-19T04:33:07.869Z,78.89
2016-06-19T04:34:07.904Z,78.51
2016-06-19T04:35:07.970Z,78.99
2016-06-19T04:36:07.988Z,78.99
2016-06-19T04:37:08.024Z,78.89
2016-06-19T04:38:08.106Z,78.99
2016-06-19T04:39:08.139Z,79.18
2016-06-19T04:40:08.159Z,79.18
2016-06-19T04:41:08.210Z,78.61
2016-06-19T04:42:08.228Z,78.32
2016-06-19T04:43:08.310Z,78.51
2016-06-19T04:44:08.314Z,78.22
2016-06-19T04:45:08.363Z,78.51
2016-06-19T04:46:08.414Z,78.36
2016-06-19T04:47:08.449Z,78.45
2016-06-19T04:48:08.484Z,78.55
2016-06-19T04:49:09.174Z,78.07
2016-06-19T04:50:08.584Z,77.69
2016-06-19T04:51:08.603Z,77.88
2016-06-19T04:52:08.638Z,77.69
2016-06-19T04:53:08.688Z,77.69
2016-06-19T04:54:08.754Z,77.69
2016-06-19T04:55:08.789Z,77.78
2016-06-19T04:56:08.824Z,77.59
2016-06-19T04:57:08.858Z,77.59
2016-06-19T04:58:08.924Z,78.17
2016-06-19T04:59:08.928Z,77.78
2016-06-19T05:00:08.993Z,77.88
2016-06-19T05:01:09.060Z,77.5
2016-06-19T05:02:09.064Z,77.73
2016-06-19T05:03:09.114Z,77.4
2016-06-19T05:04:09.148Z,77.34
2016-06-19T05:05:09.199Z,77.53
2016-06-19T05:06:09.217Z,77.15
2016-06-19T05:07:09.268Z,77.06
2016-06-19T05:08:09.318Z,77.53
2016-06-19T05:09:09.352Z,77.44
2016-06-19T05:10:09.388Z,77.34
2016-06-19T05:11:09.439Z,77.44
2016-06-19T05:12:09.473Z,77.34
2016-06-19T05:13:09.507Z,77.15
2016-06-19T05:14:09.558Z,77.02
2016-06-19T05:15:09.608Z,77.15
2016-06-19T05:16:09.627Z,77.15
2016-06-19T05:17:09.693Z,77.53
2016-06-19T05:18:09.744Z,77.15
2016-06-19T05:19:10.419Z,77.44
2016-06-19T05:20:09.812Z,77.15
2016-06-19T05:21:09.848Z,77.06
2016-06-19T05:22:09.898Z,77.15
2016-06-19T05:23:09.933Z,76.73
2016-06-19T05:24:09.968Z,76.86
2016-06-19T05:25:10.018Z,76.96
2016-06-19T05:26:10.052Z,77.02
2016-06-19T05:27:10.103Z,77.31
2016-06-19T05:28:10.825Z,77.4
2016-06-19T05:29:10.172Z,77.21
2016-06-19T05:30:10.222Z,77.31
2016-06-19T05:31:10.257Z,77.44
2016-06-19T05:32:10.308Z,77.02
2016-06-19T05:33:10.342Z,77.31
2016-06-19T05:34:10.377Z,77.31
2016-06-19T05:35:10.475Z,77.31
2016-06-19T05:36:10.462Z,77.63
2016-06-19T05:37:10.497Z,77.53
2016-06-19T05:38:10.562Z,77.82
2016-06-19T05:39:10.628Z,77.73
2016-06-19T05:40:10.632Z,77.82
2016-06-19T05:41:10.668Z,78.02
2016-06-19T05:42:10.748Z,77.92
2016-06-19T05:43:10.753Z,76.96
2016-06-19T05:44:10.802Z,77.34
2016-06-19T05:45:10.837Z,77.15
2016-06-19T05:46:10.902Z,77.15
2016-06-19T05:47:10.922Z,77.82
2016-06-19T05:48:10.973Z,77.53
2016-06-19T05:49:11.678Z,78.02
2016-06-19T05:50:11.057Z,77.53
2016-06-19T05:51:11.092Z,77.63
2016-06-19T05:52:11.127Z,77.34
2016-06-19T05:53:11.208Z,77.15
2016-06-19T05:54:11.213Z,77.15
2016-06-19T05:55:11.261Z,77.15
2016-06-19T05:56:11.297Z,77.44
2016-06-19T05:57:11.332Z,77.15
2016-06-19T05:58:11.382Z,77.15
2016-06-19T05:59:11.417Z,77.25
2016-06-19T06:00:11.450Z,77.53
2016-06-19T06:01:11.501Z,77.34
2016-06-19T06:02:11.536Z,77.15
2016-06-19T06:03:11.586Z,77.25
2016-06-19T06:04:11.636Z,77.53
2016-06-19T06:05:11.671Z,77.92
2016-06-19T06:06:11.706Z,78.02
2016-06-19T06:07:11.757Z,78.02
2016-06-19T06:08:11.792Z,77.34
2016-06-19T06:09:11.826Z,77.48
2016-06-19T06:10:11.876Z,76.86
2016-06-19T06:11:11.911Z,77
2016-06-19T06:12:11.978Z,77.09
2016-06-19T06:13:11.996Z,76.67
2016-06-19T06:14:12.032Z,77.29
2016-06-19T06:15:12.113Z,77
2016-06-19T06:16:12.116Z,77.09
2016-06-19T06:17:12.167Z,77
2016-06-19T06:18:12.201Z,77.19
2016-06-19T06:19:12.235Z,77.09
2016-06-19T06:20:12.286Z,77.09
2016-06-19T06:21:12.320Z,77.76
2016-06-19T06:22:12.418Z,77.38
2016-06-19T06:23:12.421Z,77.51
2016-06-19T06:24:12.456Z,76.75
2016-06-19T06:25:12.491Z,76.65
2016-06-19T06:26:12.556Z,76.46
2016-06-19T06:27:12.576Z,76.37
2016-06-19T06:28:12.679Z,76.56
2016-06-19T06:29:12.673Z,75.98
2016-06-19T06:30:12.761Z,75.89
2016-06-19T06:31:12.770Z,75.5
2016-06-19T06:32:12.809Z,76.17
2016-06-19T06:33:12.893Z,75.54
2016-06-19T06:34:12.899Z,75.63
2016-06-19T06:35:12.952Z,75.54
2016-06-19T06:36:13.005Z,74.58
2016-06-19T06:37:13.041Z,73.62
2016-06-19T06:38:13.076Z,73.85
2016-06-19T06:39:13.128Z,74.13
2016-06-19T06:40:13.164Z,74.13
2016-06-19T06:41:13.214Z,73.08
2016-06-19T06:42:13.282Z,73.37
2016-06-19T06:43:13.300Z,73.27
2016-06-19T06:44:13.350Z,73.08
2016-06-19T06:45:13.385Z,73.08
2016-06-19T06:46:13.421Z,72.6
2016-06-19T06:47:13.471Z,72.41
2016-06-19T06:48:13.521Z,72.5
2016-06-19T06:49:13.556Z,72.6
2016-06-19T06:50:13.590Z,72.73
2016-06-19T06:51:13.640Z,72.64
2016-06-19T06:52:13.691Z,72.54
2016-06-19T06:53:13.725Z,71.87
2016-06-19T06:54:13.760Z,71.77
2016-06-19T06:55:13.826Z,71.39
2016-06-19T06:56:13.861Z,71.48
2016-06-19T06:57:13.895Z,71.39
2016-06-19T06:58:13.946Z,71.29
2016-06-19T06:59:13.981Z,71.1
2016-06-19T07:00:14.016Z,71.58
2016-06-19T07:01:14.066Z,71.39
2016-06-19T07:02:14.116Z,71.25
2016-06-19T07:03:14.151Z,70.62
2016-06-19T07:04:14.201Z,70.9
2016-06-19T07:05:14.236Z,70.58
2016-06-19T07:06:14.301Z,70.49
2016-06-19T07:07:14.321Z,70.87
2016-06-19T07:08:14.372Z,71.73
2016-06-19T07:09:14.405Z,70.97
2016-06-19T07:10:14.456Z,71.19
2016-06-19T07:11:14.490Z,71.55
2016-06-19T07:12:14.541Z,71
2016-06-19T07:13:14.592Z,70.9
2016-06-19T07:14:14.642Z,70.72
2016-06-19T07:15:14.661Z,70.52
2016-06-19T07:16:14.710Z,70.14
2016-06-19T07:17:14.746Z,70.43
2016-06-19T07:18:14.812Z,70.04
2016-06-19T07:19:14.831Z,69.37
2016-06-19T07:20:14.882Z,69.85
2016-06-19T07:21:14.948Z,69.95
2016-06-19T07:22:14.981Z,69.37
2016-06-19T07:23:15.017Z,69.56
2016-06-19T07:24:15.067Z,69.21
2016-06-19T07:25:15.117Z,69.69
2016-06-19T07:26:15.136Z,69.12
2016-06-19T07:27:15.187Z,69.4
2016-06-19T07:28:15.269Z,68.92
2016-06-19T07:29:15.271Z,68.57
2016-06-19T07:30:15.322Z,68.76
2016-06-19T07:31:15.357Z,68.48
2016-06-19T07:32:15.407Z,68.48
2016-06-19T07:33:15.458Z,68.54
2016-06-19T07:34:15.477Z,68.54
2016-06-19T07:35:15.527Z,68.92
2016-06-19T07:36:15.577Z,68.35
2016-06-19T07:37:15.612Z,68.15
2016-06-19T07:38:15.647Z,68.44
2016-06-19T07:39:15.697Z,68.35
2016-06-19T07:40:15.748Z,68.06
2016-06-19T07:41:15.782Z,68.15
2016-06-19T07:42:15.833Z,67.77
2016-06-19T07:43:15.867Z,67.48
2016-06-19T07:44:15.917Z,68.06
2016-06-19T07:45:15.952Z,68.21
2016-06-19T07:46:16.003Z,67.93
2016-06-19T07:47:16.693Z,68.31
2016-06-19T07:48:16.104Z,67.93
2016-06-19T07:49:16.122Z,68.21
2016-06-19T07:50:16.172Z,68.63
2016-06-19T07:51:16.206Z,68.79
2016-06-19T07:52:16.273Z,68.7
2016-06-19T07:53:16.308Z,68.63
2016-06-19T07:54:16.342Z,68.54
2016-06-19T07:55:16.409Z,68.54
2016-06-19T07:56:16.428Z,68.44
2016-06-19T07:57:16.463Z,68.25
2016-06-19T07:58:16.513Z,68.25
2016-06-19T07:59:16.548Z,68.44
2016-06-19T08:00:16.613Z,68.63
2016-06-19T08:01:16.632Z,68.48
2016-06-19T08:02:16.683Z,68.09
2016-06-19T08:03:16.733Z,68.09
2016-06-19T08:04:16.768Z,68.29
2016-06-19T08:05:16.818Z,67.99
2016-06-19T08:06:16.869Z,68.19
2016-06-19T08:07:16.904Z,68.29
2016-06-19T08:08:16.937Z,68.29
2016-06-19T08:09:16.989Z,67.13
2016-06-19T08:10:17.022Z,67.45
2016-06-19T08:11:17.073Z,68.03
2016-06-19T08:12:17.123Z,67.65
2016-06-19T08:13:17.174Z,67.26
2016-06-19T08:14:17.209Z,67.16
2016-06-19T08:15:17.259Z,67.07
2016-06-19T08:16:17.294Z,67.16
2016-06-19T08:17:17.343Z,67.26
2016-06-19T08:18:17.394Z,67.19
2016-06-19T08:19:17.429Z,67.29
2016-06-19T08:20:17.464Z,67.1
2016-06-19T08:21:17.515Z,66.81
2016-06-19T08:22:17.564Z,66.52
2016-06-19T08:23:17.600Z,66.65
2016-06-19T08:24:17.650Z,66.65
2016-06-19T08:25:17.699Z,66.62
2016-06-19T08:26:17.719Z,66.24
2016-06-19T08:27:17.831Z,65.94
2016-06-19T08:28:17.835Z,65.69
2016-06-19T08:29:17.870Z,65.08
2016-06-19T08:30:17.905Z,65.3
2016-06-19T08:31:17.955Z,65.2
2016-06-19T08:32:17.990Z,65.78
2016-06-19T08:33:18.040Z,65.98
2016-06-19T08:34:18.075Z,65.78
2016-06-19T08:35:18.125Z,65.4
2016-06-19T08:36:18.175Z,65.4
2016-06-19T08:37:18.210Z,65.43
2016-06-19T08:38:18.291Z,65.14
2016-06-19T08:39:18.311Z,65.33
2016-06-19T08:40:18.362Z,64.95
2016-06-19T08:41:18.396Z,64.95
2016-06-19T08:42:18.446Z,64.95
2016-06-19T08:43:18.480Z,64.95
2016-06-19T08:44:18.533Z,64.66
2016-06-19T08:45:18.571Z,64.66
2016-06-19T08:46:18.624Z,64.76
2016-06-19T08:47:18.677Z,64.86
2016-06-19T08:48:18.714Z,64.47
2016-06-19T08:49:18.766Z,63.89
2016-06-19T08:50:18.817Z,64.56
2016-06-19T08:51:18.885Z,64.37
2016-06-19T08:52:18.889Z,63.79
2016-06-19T08:53:18.972Z,63.44
2016-06-19T08:54:18.991Z,63.34
2016-06-19T08:55:19.042Z,63.15
2016-06-19T08:56:19.093Z,62.96
2016-06-19T08:57:19.127Z,62.15
2016-06-19T08:58:19.195Z,62.06
2016-06-19T08:59:19.213Z,62.25
2016-06-19T09:00:19.264Z,61.58
2016-06-19T09:01:19.314Z,62.45
2016-06-19T09:02:19.349Z,61.58
2016-06-19T09:03:19.415Z,61.77
2016-06-19T09:04:19.465Z,61.77
2016-06-19T09:05:19.484Z,61.99
2016-06-19T09:06:19.519Z,61.61
2016-06-19T09:07:19.585Z,61.83
2016-06-19T09:08:19.635Z,61.64
2016-06-19T09:09:19.670Z,60.58
2016-06-19T09:10:19.705Z,59.42
2016-06-19T09:11:19.754Z,58.36
2016-06-19T09:12:19.821Z,58.81
2016-06-19T09:13:19.840Z,59.39
2016-06-19T09:14:19.890Z,58.33
2016-06-19T09:15:19.925Z,59
2016-06-19T09:16:19.976Z,58.91
2016-06-19T09:17:20.026Z,58.62
2016-06-19T09:18:20.061Z,59.3
2016-06-19T09:19:20.112Z,59
2016-06-19T09:20:20.177Z,59
2016-06-19T09:21:20.212Z,58.81
2016-06-19T09:22:20.230Z,59.03
2016-06-19T09:23:20.281Z,59.03
2016-06-19T09:24:20.362Z,58.65
2016-06-19T09:25:20.382Z,59.13
2016-06-19T09:26:20.417Z,59.23
2016-06-19T09:27:20.467Z,58.45
2016-06-19T09:28:20.518Z,58.07
2016-06-19T09:29:20.551Z,57.52
2016-06-19T09:30:20.617Z,57.59
2016-06-19T09:31:20.699Z,57.78
2016-06-19T09:32:20.688Z,58
2016-06-19T09:33:20.738Z,57.9
2016-06-19T09:34:20.789Z,58.29
2016-06-19T09:35:20.853Z,58
2016-06-19T09:36:20.873Z,57.71
2016-06-19T09:37:20.923Z,57.23
2016-06-19T09:38:20.958Z,56.36
2016-06-19T09:39:21.009Z,56.74
2016-06-19T09:40:21.058Z,56.36
2016-06-19T09:41:21.093Z,56.07
2016-06-19T09:42:21.144Z,56.56
2016-06-19T09:43:21.194Z,56.56
2016-06-19T09:44:21.229Z,56.65
2016-06-19T09:45:21.279Z,55.88
2016-06-19T09:46:21.330Z,56.07
2016-06-19T09:47:21.379Z,56.65
2016-06-19T09:48:21.414Z,56.46
2016-06-19T09:49:21.449Z,56.26
2016-06-19T09:50:21.499Z,56.77
2016-06-19T09:51:21.550Z,56.77
2016-06-19T09:52:21.601Z,56.71
2016-06-19T09:53:21.650Z,56.99
2016-06-19T09:54:21.716Z,56.32
2016-06-19T09:55:21.736Z,56.41
2016-06-19T09:56:21.801Z,56.35
2016-06-19T09:57:21.821Z,56.45
2016-06-19T09:58:21.902Z,56.93
2016-06-19T09:59:21.921Z,56.45
2016-06-19T10:00:22.018Z,56.25
2016-06-19T10:01:22.021Z,56.41
2016-06-19T10:02:22.088Z,56.41
2016-06-19T10:03:22.092Z,56.41
2016-06-19T10:04:22.142Z,55.93
2016-06-19T10:05:22.191Z,56.13
2016-06-19T10:06:22.274Z,56.03
2016-06-19T10:07:22.292Z,56.41
2016-06-19T10:08:22.327Z,56.03
2016-06-19T10:09:23.034Z,55.83
2016-06-19T10:10:22.428Z,56.13
2016-06-19T10:11:22.462Z,55.93
2016-06-19T10:12:22.512Z,55.93
2016-06-19T10:13:22.548Z,55.93
2016-06-19T10:14:22.597Z,56.22
2016-06-19T10:15:22.648Z,55.96
2016-06-19T10:16:22.683Z,56.15
2016-06-19T10:17:22.780Z,55.38
2016-06-19T10:18:22.783Z,55.29
2016-06-19T10:19:22.834Z,55.19
2016-06-19T10:20:22.900Z,55.29
2016-06-19T10:21:22.919Z,55.19
2016-06-19T10:22:22.969Z,54.9
2016-06-19T10:23:23.020Z,55.19
2016-06-19T10:24:23.070Z,55.29
2016-06-19T10:25:23.104Z,55.09
2016-06-19T10:26:23.155Z,54.9
2016-06-19T10:27:23.189Z,54.99
2016-06-19T10:28:23.318Z,55.19
2016-06-19T10:29:23.290Z,54.51
2016-06-19T10:30:23.341Z,54.8
2016-06-19T10:31:23.407Z,54.71
2016-06-19T10:32:23.426Z,54.41
2016-06-19T10:33:23.477Z,54.61
2016-06-19T10:34:23.527Z,54.8
2016-06-19T10:35:23.577Z,54.61
2016-06-19T10:36:23.612Z,54.13
2016-06-19T10:37:23.662Z,53.74
2016-06-19T10:38:23.712Z,53.64
2016-06-19T10:39:23.747Z,53.35
2016-06-19T10:40:23.797Z,52.87
2016-06-19T10:41:23.848Z,52.58
2016-06-19T10:42:23.914Z,52.61
2016-06-19T10:43:23.933Z,52.41
2016-06-19T10:44:23.999Z,50.86
2016-06-19T10:45:24.033Z,50.76
2016-06-19T10:46:24.083Z,50.96
2016-06-19T10:47:24.133Z,50.18
2016-06-19T10:48:24.184Z,50.09
2016-06-19T10:49:24.219Z,50.09
2016-06-19T10:50:24.269Z,49.44
2016-06-19T10:51:24.305Z,49.73
2016-06-19T10:52:24.353Z,49.24
2016-06-19T10:53:24.421Z,49.34
2016-06-19T10:54:24.455Z,49.44
2016-06-19T10:55:24.489Z,49.73
2016-06-19T10:56:24.539Z,49.41
2016-06-19T10:57:24.621Z,49.6
2016-06-19T10:58:24.641Z,50.28
2016-06-19T10:59:24.675Z,49.9
2016-06-19T11:00:24.757Z,49.51
2016-06-19T11:01:24.794Z,49.8
2016-06-19T11:02:24.846Z,49.6
2016-06-19T11:03:24.882Z,49.9
2016-06-19T11:04:24.965Z,49.41
2016-06-19T11:05:24.969Z,49.51
2016-06-19T11:06:25.020Z,49.02
2016-06-19T11:07:25.086Z,48.74
2016-06-19T11:08:25.122Z,48.44
2016-06-19T11:09:25.157Z,48.44
2016-06-19T11:10:25.208Z,49.63
2016-06-19T11:11:25.259Z,49.29
2016-06-19T11:12:25.294Z,46.55
2016-06-19T11:13:25.344Z,44.68
2016-06-19T11:14:25.411Z,42.91
2016-06-19T11:15:25.477Z,39.86
2016-06-19T11:16:25.511Z,36.7
2016-06-19T11:17:25.546Z,35.25
2016-06-19T11:18:25.627Z,35.66
2016-06-19T11:19:25.647Z,35.66
2016-06-19T11:20:25.712Z,35.74
2016-06-19T11:21:25.779Z,35.45
2016-06-19T11:22:25.813Z,35.07
2016-06-19T11:23:25.864Z,35.07
2016-06-19T11:24:25.914Z,34.89
2016-06-19T11:25:25.979Z,33.07
2016-06-19T11:26:26.015Z,29.88
2016-06-19T11:27:26.081Z,27.37
2016-06-19T11:28:26.131Z,25.35
2016-06-19T11:29:26.197Z,23.8
2016-06-19T11:30:26.247Z,22.94
2016-06-19T11:31:26.297Z,22.08
2016-06-19T11:32:26.348Z,22.88
2016-06-19T11:33:26.414Z,22.5
2016-06-19T11:34:26.464Z,21.93
2016-06-19T11:35:26.561Z,21.86
2016-06-19T11:36:26.580Z,21.09
2016-06-19T11:37:26.631Z,18.33
2016-06-19T11:38:26.696Z,18.35
2016-06-19T11:39:26.794Z,18.94
2016-06-19T11:40:26.813Z,19.52
2016-06-19T11:41:26.909Z,19.71
2016-06-19T11:42:26.930Z,19.71
2016-06-19T11:43:26.996Z,19.68
2016-06-19T11:44:27.045Z,20.56
2016-06-19T11:45:27.128Z,21.12
2016-06-19T11:46:27.177Z,21.39
2016-06-19T11:47:27.244Z,21.88
2016-06-19T11:48:27.294Z,21.68
2016-06-19T11:49:27.359Z,21.01
2016-06-19T11:50:27.410Z,21.13
2016-06-19T11:51:27.460Z,20.47
2016-06-19T11:52:27.510Z,20.18
2016-06-19T11:53:27.624Z,19.01
2016-06-19T11:54:27.862Z,17.05
2016-06-19T11:55:27.709Z,16.65
2016-06-19T11:56:27.759Z,16.83
2016-06-19T11:57:27.826Z,17.4
2016-06-19T11:58:27.890Z,18.1
2016-06-19T11:59:27.941Z,18.1
2016-06-19T12:00:28.023Z,17.42
2016-06-19T12:01:28.089Z,17.14
2016-06-19T12:02:28.123Z,16.76
2016-06-19T12:03:28.205Z,16.37
2016-06-19T12:04:28.240Z,16.37
2016-06-19T12:05:28.306Z,16.74
2016-06-19T12:06:28.371Z,17.22
2016-06-19T12:07:28.469Z,16.51
2016-06-19T12:08:28.489Z,16.09
2016-06-19T12:09:28.538Z,16.07
2016-06-19T12:10:28.635Z,16.66
2016-06-19T12:11:28.670Z,16.66
2016-06-19T12:12:28.722Z,16.66
2016-06-19T12:13:28.787Z,17.33
2016-06-19T12:14:28.837Z,18.02
2016-06-19T12:15:28.902Z,18.04
2016-06-19T12:16:28.953Z,18.43
2016-06-19T12:17:29.019Z,18.35
2016-06-19T12:18:29.070Z,19.15
2016-06-19T12:19:29.151Z,18.57
2016-06-19T12:20:29.202Z,18.78
2016-06-19T12:21:29.284Z,18.29
2016-06-19T12:22:29.301Z,17.52
2016-06-19T12:23:29.368Z,17.53
2016-06-19T12:24:29.450Z,17.34
2016-06-19T12:25:29.484Z,16.94
2016-06-19T12:26:29.598Z,16.25
2016-06-19T12:27:30.257Z,16.76
2016-06-19T12:28:29.729Z,16.06
2016-06-19T12:29:29.733Z,14.78
2016-06-19T12:30:29.799Z,14.97
2016-06-19T12:31:29.879Z,14.97
2016-06-19T12:32:29.915Z,15.06
2016-06-19T12:33:29.965Z,15.75
2016-06-19T12:34:30.047Z,15.16
2016-06-19T12:35:30.096Z,14.96
2016-06-19T12:36:30.163Z,15.86
2016-06-19T12:37:30.213Z,15.86
2016-06-19T12:38:30.280Z,15.67
2016-06-19T12:39:30.345Z,14.48
2016-06-19T12:40:30.411Z,14.47
2016-06-19T12:41:30.462Z,14.68
2016-06-19T12:42:30.559Z,14.87
2016-06-19T12:43:30.594Z,15.17
2016-06-19T12:44:30.691Z,14.87
2016-06-19T12:45:30.711Z,14.69
2016-06-19T12:46:30.806Z,14.78
2016-06-19T12:47:30.842Z,14.89
2016-06-19T12:48:30.908Z,14.69
2016-06-19T12:49:30.974Z,14.5
2016-06-19T12:50:31.023Z,12.32
2016-06-19T12:51:31.090Z,12.51
2016-06-19T12:52:31.155Z,11.81
2016-06-19T12:53:31.238Z,12.81
2016-06-19T12:54:31.273Z,12.8
2016-06-19T12:55:31.354Z,13.29
2016-06-19T12:56:31.436Z,13.39